Port Chester, NY (10573)

2:03 AM EST en Enero 31, 2015 (GMT -0500)
N1TKS/BYRAM, CT | Change Station
CLOSE
Current Station
Estación meteorológica personal
Location: BYRAM, CT
Altura: 82 ft
Estaciones meteorológicas cercanas

Alt 82 ft 41.01 °N, 73.65 °W | Updated 2 seconds ago

Despejado
Despejado
18.3 ° F
Sensación térmica 3 ° F
N
18.4
Viento Variable Viento desde Oeste
Gusts 18.4 mph

Hoy
Alta -- | Baja -- ° F
--% Posibilidad de precipitaciones
Ayer
Alta -- | Baja -- ° F
Precip. -- pul
7:06 AM 5:10 PM
Gibosa creciente, 88% visible
Presión 29.99 pul
Visibilidad 9.0 Millas
Nubes Despejado
Vientos helados 3 ° F
Punto de rocío 6 ° F
Humedad 58%
Precipitaciones 0.00 pul
Espesor de la nieve No disponible.
UV 0 de una escala de 12
Polen .10 de una escala de 12
Calidad del aire No disponible.
Flu Activity No disponible.
METAR KHPN 310656Z 32024G34KT 9SM CLR M09/M17 A2995 RMK AO2 PK WND 31035/0637 SLP154 T10941172

More Conditions Fewer Conditions

Presión 29.99 pul
Visibilidad 9.0 Millas
Nubes Despejado
Vientos helados 3 ° F
Punto de rocío 6 ° F
Humedad 58%
Precipitaciones 0.00 pul
Espesor de la nieve No disponible.
UV 0 de una escala de 12
Polen .10 de una escala de 12
Calidad del aire No disponible.
Flu Activity No disponible.
METAR KHPN 310656Z 32024G34KT 9SM CLR M09/M17 A2995 RMK AO2 PK WND 31035/0637 SLP154 T10941172

More Conditions Fewer Conditions

10-Day Weather Forecast

Almanac

Astronomía

Jan. 31, 2015 Salida Puesta
Hora real
Crepúsculo civil
Crepúsculo náutico
Crepúsculo astronómico
Luna
Horas de luz
Horas de luz
Tomorrow will be .
, % of the Moon is Illuminated

Extremos de hoy

Máximos del estado Bajos del estado

Community

WunderPhotos

Upload Photos

1,792,014 ¡fotos cargadas!

WunderBlogs® & News

Nearby

Calidad del aire

  Calidad del aire Índice AQ Contaminante
Not available.

Grosos de nieve

Estación Profundido Altura

Actividad de terremotos

Ciudad Distance Mag. Tiempo y dato
Magnitud mínima muestra es 2,5.

Temperaturas de aguas costeras

Lugar Temperatura

Estaciones meteorológicas cercanas